createdAt,value
2022-08-03T00:00:26.534Z,25.15
2022-08-03T00:02:54.049Z,25.16
2022-08-03T00:05:21.355Z,25.13
2022-08-03T00:07:49.584Z,25.14
2022-08-03T00:10:17.228Z,25.12
2022-08-03T00:12:44.389Z,25.13
2022-08-03T00:15:16.515Z,25.14
2022-08-03T00:17:52.096Z,25.10
2022-08-03T00:20:21.265Z,25.11
2022-08-03T00:22:48.805Z,25.11
2022-08-03T00:25:16.239Z,25.08
2022-08-03T00:27:43.447Z,25.09
2022-08-03T00:30:10.826Z,25.04
2022-08-03T00:32:38.820Z,25.02
2022-08-03T00:35:29.990Z,24.95
2022-08-03T00:38:00.076Z,24.84
2022-08-03T00:40:27.431Z,24.83
2022-08-03T00:42:59.345Z,24.81
2022-08-03T00:45:30.783Z,24.74
2022-08-03T00:47:58.242Z,24.72
2022-08-03T00:50:26.804Z,24.75
2022-08-03T00:52:55.521Z,24.70
2022-08-03T00:55:22.805Z,24.71
2022-08-03T00:57:50.544Z,24.70
2022-08-03T01:00:19.655Z,24.70
2022-08-03T01:02:47.484Z,24.72
2022-08-03T01:05:14.773Z,24.68
2022-08-03T01:07:57.296Z,24.71
2022-08-03T01:10:31.592Z,24.63
2022-08-03T01:14:01.202Z,24.62
2022-08-03T01:16:07.787Z,24.60
2022-08-03T01:18:45.020Z,24.56
2022-08-03T01:21:21.654Z,24.57
2022-08-03T01:24:22.698Z,24.53
2022-08-03T01:27:03.399Z,24.49
2022-08-03T01:29:30.628Z,24.48
2022-08-03T01:32:58.119Z,24.44
2022-08-03T01:34:51.925Z,24.46
2022-08-03T01:37:24.836Z,24.38
2022-08-03T01:39:53.928Z,24.46
2022-08-03T01:42:24.098Z,24.43
2022-08-03T01:44:52.542Z,24.36
2022-08-03T01:47:23.888Z,24.47
2022-08-03T01:49:52.383Z,24.49
2022-08-03T01:52:20.460Z,24.43
2022-08-03T01:54:49.554Z,24.44
2022-08-03T01:57:17.607Z,24.41
2022-08-03T01:59:45.444Z,24.40
2022-08-03T02:02:32.387Z,24.13
2022-08-03T02:05:03.207Z,24.19
2022-08-03T02:07:32.205Z,24.20
2022-08-03T02:10:01.209Z,24.25
2022-08-03T02:12:29.962Z,24.25
2022-08-03T02:14:57.591Z,24.21
2022-08-03T02:17:39.160Z,24.23
2022-08-03T02:20:08.484Z,24.21
2022-08-03T02:22:36.161Z,24.23
2022-08-03T02:25:03.653Z,24.25
2022-08-03T02:27:32.444Z,24.15
2022-08-03T02:30:03.129Z,23.91
2022-08-03T02:32:33.000Z,23.98
2022-08-03T02:35:00.967Z,24.01
2022-08-03T02:37:31.032Z,24.09
2022-08-03T02:40:01.340Z,24.11
2022-08-03T02:42:29.574Z,23.99
2022-08-03T02:44:58.497Z,23.74
2022-08-03T02:47:27.767Z,23.62
2022-08-03T02:49:57.306Z,23.68
2022-08-03T02:52:26.835Z,23.61
2022-08-03T02:54:56.231Z,23.75
2022-08-03T02:57:24.849Z,23.81
2022-08-03T02:59:52.827Z,23.93
2022-08-03T03:02:20.272Z,23.97
2022-08-03T03:05:53.595Z,23.87
2022-08-03T03:07:51.490Z,24.03
2022-08-03T03:10:21.944Z,24.04
2022-08-03T03:12:51.750Z,24.04
2022-08-03T03:15:19.024Z,24.01
2022-08-03T03:17:47.308Z,23.92
2022-08-03T03:20:29.771Z,23.89
2022-08-03T03:23:01.121Z,23.86
2022-08-03T03:25:30.644Z,23.81
2022-08-03T03:27:58.376Z,23.78
2022-08-03T03:30:26.348Z,23.72
2022-08-03T03:32:53.996Z,23.65
2022-08-03T03:35:21.443Z,23.67
2022-08-03T03:37:48.749Z,23.67
2022-08-03T03:40:15.924Z,23.65
2022-08-03T03:42:43.192Z,23.79
2022-08-03T03:45:11.069Z,23.81
2022-08-03T03:47:38.257Z,23.89
2022-08-03T03:50:06.059Z,23.91
2022-08-03T03:52:33.729Z,23.83
2022-08-03T03:55:01.761Z,23.70
2022-08-03T03:57:29.527Z,23.63
2022-08-03T03:59:56.856Z,23.61
2022-08-03T04:02:24.057Z,23.58
2022-08-03T04:05:09.570Z,23.58
2022-08-03T04:08:04.859Z,23.60
2022-08-03T04:10:52.687Z,23.64
2022-08-03T04:13:20.782Z,23.68
2022-08-03T04:15:48.364Z,23.68
2022-08-03T04:18:16.261Z,23.65
2022-08-03T04:20:45.721Z,23.64
2022-08-03T04:23:16.763Z,23.57
2022-08-03T04:25:44.421Z,23.53
2022-08-03T04:28:30.708Z,23.56
2022-08-03T04:30:59.811Z,23.54
2022-08-03T04:33:29.375Z,23.59
2022-08-03T04:36:02.888Z,23.56
2022-08-03T04:38:37.072Z,23.52
2022-08-03T04:41:04.914Z,23.56
2022-08-03T04:43:33.579Z,23.55
2022-08-03T04:46:02.048Z,23.49
2022-08-03T04:48:29.276Z,23.52
2022-08-03T04:50:56.673Z,23.46
2022-08-03T04:53:23.860Z,23.45
2022-08-03T04:55:51.113Z,23.52
2022-08-03T04:58:18.267Z,23.58
2022-08-03T05:00:45.616Z,23.63
2022-08-03T05:03:20.413Z,23.70
2022-08-03T05:06:01.620Z,23.78
2022-08-03T05:08:41.191Z,23.80
2022-08-03T05:11:17.614Z,23.80
2022-08-03T05:13:45.253Z,23.79
2022-08-03T05:16:13.882Z,23.83
2022-08-03T05:18:42.077Z,23.89
2022-08-03T05:21:09.565Z,23.87
2022-08-03T05:23:37.887Z,23.97
2022-08-03T05:26:05.190Z,24.01
2022-08-03T05:28:32.393Z,24.15
2022-08-03T05:30:59.540Z,24.39
2022-08-03T05:33:26.769Z,24.62
2022-08-03T05:35:57.333Z,25.09
2022-08-03T05:38:34.066Z,25.13
2022-08-03T05:41:23.292Z,25.03
2022-08-03T05:43:49.084Z,25.05
2022-08-03T05:46:16.495Z,25.07
2022-08-03T05:48:43.819Z,25.11
2022-08-03T05:51:13.900Z,25.29
2022-08-03T05:53:41.833Z,25.90
2022-08-03T05:56:15.094Z,25.75
2022-08-03T05:58:44.433Z,25.59
2022-08-03T06:01:12.007Z,25.56
2022-08-03T06:03:39.276Z,25.63
2022-08-03T06:06:06.503Z,25.61
2022-08-03T06:08:34.322Z,25.61
2022-08-03T06:11:01.518Z,25.61
2022-08-03T06:13:28.751Z,25.67
2022-08-03T06:15:55.975Z,25.84
2022-08-03T06:18:24.579Z,25.88
2022-08-03T06:20:52.493Z,26.02
2022-08-03T06:23:20.171Z,26.10
2022-08-03T06:25:47.632Z,26.08
2022-08-03T06:31:03.561Z,25.94
2022-08-03T06:34:30.721Z,26.06
2022-08-03T06:36:21.209Z,26.15
2022-08-03T06:38:48.475Z,26.25
2022-08-03T06:41:15.625Z,26.36
2022-08-03T06:44:02.968Z,26.36
2022-08-03T06:46:30.204Z,26.50
2022-08-03T06:48:57.546Z,26.64
2022-08-03T06:52:03.302Z,26.65
2022-08-03T06:54:12.398Z,26.73
2022-08-03T06:56:39.733Z,26.93
2022-08-03T06:59:07.172Z,27.01
2022-08-03T07:01:34.414Z,27.08
2022-08-03T07:04:01.715Z,27.19
2022-08-03T07:06:28.859Z,27.18
2022-08-03T07:08:59.541Z,27.17
2022-08-03T07:11:28.572Z,27.32
2022-08-03T07:13:56.472Z,27.45
2022-08-03T07:16:23.650Z,27.61
2022-08-03T07:18:50.819Z,27.69
2022-08-03T07:21:18.079Z,27.75
2022-08-03T07:23:45.224Z,27.92
2022-08-03T07:26:13.145Z,28.00
2022-08-03T07:28:40.310Z,28.11
2022-08-03T07:31:07.963Z,28.01
2022-08-03T07:33:35.346Z,28.09
2022-08-03T07:36:02.596Z,28.17
2022-08-03T07:38:30.080Z,28.32
2022-08-03T07:40:57.240Z,28.31
2022-08-03T07:43:24.468Z,28.39
2022-08-03T07:45:51.602Z,28.36
2022-08-03T07:48:18.752Z,28.47
2022-08-03T07:50:46.339Z,28.62
2022-08-03T07:53:13.527Z,28.66
2022-08-03T07:55:40.727Z,28.71
2022-08-03T07:58:09.930Z,28.64
2022-08-03T08:00:37.239Z,28.66
2022-08-03T08:03:04.718Z,28.62
2022-08-03T08:05:32.379Z,28.79
2022-08-03T08:08:00.605Z,28.96
2022-08-03T08:10:27.880Z,28.88
2022-08-03T08:12:55.261Z,28.99
2022-08-03T08:15:22.688Z,29.15
2022-08-03T08:18:03.570Z,29.33
2022-08-03T08:20:32.864Z,29.27
2022-08-03T08:23:09.582Z,29.39
2022-08-03T08:25:51.995Z,29.34
2022-08-03T08:28:32.191Z,29.35
2022-08-03T08:31:00.815Z,29.47
2022-08-03T08:33:42.226Z,29.59
2022-08-03T08:36:15.762Z,29.73
2022-08-03T08:38:44.932Z,29.85
2022-08-03T08:41:13.463Z,29.86
2022-08-03T08:43:41.080Z,29.96
2022-08-03T08:46:11.857Z,29.93
2022-08-03T08:48:45.121Z,30.13
2022-08-03T08:51:13.544Z,30.36
2022-08-03T08:53:42.264Z,30.19
2022-08-03T08:56:15.385Z,30.26
2022-08-03T08:58:47.071Z,30.35
2022-08-03T09:01:14.413Z,30.54
2022-08-03T09:03:41.761Z,30.59
2022-08-03T09:06:09.782Z,30.68
2022-08-03T09:08:37.150Z,30.89
2022-08-03T09:11:04.436Z,31.06
2022-08-03T09:13:35.606Z,31.23
2022-08-03T09:16:09.388Z,31.03
2022-08-03T09:18:36.650Z,30.99
2022-08-03T09:21:30.188Z,31.12
2022-08-03T09:24:04.365Z,31.04
2022-08-03T09:26:33.577Z,31.56
2022-08-03T09:29:06.898Z,31.92
2022-08-03T09:31:43.835Z,31.94
2022-08-03T09:34:12.855Z,31.99
2022-08-03T09:36:44.675Z,31.86
2022-08-03T09:39:13.601Z,31.85
2022-08-03T09:41:41.569Z,31.57
2022-08-03T09:44:08.917Z,31.83
2022-08-03T09:46:53.437Z,31.88
2022-08-03T09:49:20.779Z,31.84
2022-08-03T09:52:31.804Z,31.81
2022-08-03T09:54:35.333Z,31.55
2022-08-03T09:57:02.585Z,31.31
2022-08-03T09:59:30.948Z,31.38
2022-08-03T10:01:59.767Z,31.45
2022-08-03T10:04:27.017Z,31.55
2022-08-03T10:07:03.616Z,31.53
2022-08-03T10:09:30.992Z,31.32
2022-08-03T10:12:06.681Z,31.56
2022-08-03T10:14:33.948Z,31.49
2022-08-03T10:17:01.312Z,31.55
2022-08-03T10:19:28.513Z,31.63
2022-08-03T10:21:56.989Z,31.73
2022-08-03T10:24:27.045Z,31.65
2022-08-03T10:27:01.261Z,31.46
2022-08-03T10:29:28.813Z,31.32
2022-08-03T10:31:58.751Z,31.38
2022-08-03T10:34:27.079Z,31.57
2022-08-03T10:36:57.329Z,31.56
2022-08-03T10:39:26.123Z,31.49
2022-08-03T10:41:54.712Z,31.76
2022-08-03T10:44:24.434Z,31.76
2022-08-03T10:46:51.802Z,31.78
2022-08-03T10:49:33.576Z,31.76
2022-08-03T10:52:10.458Z,31.76
2022-08-03T10:55:03.582Z,31.79
2022-08-03T10:57:45.867Z,31.81
2022-08-03T11:00:17.100Z,31.84
2022-08-03T11:03:04.553Z,31.88
2022-08-03T11:05:33.245Z,31.94
2022-08-03T11:08:20.366Z,32.05
2022-08-03T11:10:48.136Z,31.99
2022-08-03T11:13:16.880Z,32.10
2022-08-03T11:15:46.662Z,32.13
2022-08-03T11:18:15.006Z,32.10
2022-08-03T11:20:56.065Z,32.03
2022-08-03T11:24:05.018Z,32.04
2022-08-03T11:26:33.740Z,32.15
2022-08-03T11:29:19.855Z,32.10
2022-08-03T11:31:50.136Z,32.12
2022-08-03T11:34:18.125Z,32.15
2022-08-03T11:37:04.206Z,32.26
2022-08-03T11:39:41.093Z,32.20
2022-08-03T11:42:24.035Z,32.28
2022-08-03T11:44:52.746Z,32.30
2022-08-03T11:47:24.389Z,32.35
2022-08-03T11:49:53.910Z,32.31
2022-08-03T11:52:27.414Z,32.27
2022-08-03T11:54:56.626Z,32.25
2022-08-03T11:59:17.903Z,32.13
2022-08-03T12:00:23.625Z,32.15
2022-08-03T12:02:57.477Z,32.13
2022-08-03T12:05:41.548Z,32.18
2022-08-03T12:08:19.536Z,32.20
2022-08-03T12:10:47.937Z,32.06
2022-08-03T12:14:44.927Z,32.20
2022-08-03T12:16:02.999Z,32.15
2022-08-03T12:18:30.437Z,32.24
2022-08-03T12:21:05.056Z,32.18
2022-08-03T12:23:36.058Z,32.27
2022-08-03T12:26:06.600Z,32.35
2022-08-03T12:28:37.728Z,32.33
2022-08-03T12:31:09.480Z,32.25
2022-08-03T12:33:55.475Z,32.26
2022-08-03T12:36:22.991Z,32.23
2022-08-03T12:39:00.936Z,32.25
2022-08-03T12:41:34.217Z,32.28
2022-08-03T12:44:04.780Z,32.29
2022-08-03T12:46:36.412Z,32.16
2022-08-03T12:49:11.342Z,32.22
2022-08-03T12:51:57.250Z,32.22
2022-08-03T12:54:25.892Z,32.17
2022-08-03T12:57:19.558Z,32.10
2022-08-03T12:59:52.820Z,32.17
2022-08-03T13:02:23.561Z,32.21
2022-08-03T13:04:51.785Z,32.30
2022-08-03T13:07:20.211Z,32.35
2022-08-03T13:09:47.565Z,32.43
2022-08-03T13:12:19.104Z,32.33
2022-08-03T13:14:47.623Z,32.27
2022-08-03T13:17:16.798Z,32.26
2022-08-03T13:19:44.733Z,32.31
2022-08-03T13:22:16.027Z,32.31
2022-08-03T13:24:44.142Z,32.15
2022-08-03T13:28:03.652Z,32.18
2022-08-03T13:29:59.196Z,32.29
2022-08-03T13:32:26.590Z,32.22
2022-08-03T13:34:53.831Z,32.02
2022-08-03T13:37:21.482Z,31.93
2022-08-03T13:39:59.406Z,31.95
2022-08-03T13:42:29.007Z,31.97
2022-08-03T13:44:56.230Z,32.01
2022-08-03T13:47:23.553Z,32.02
2022-08-03T13:49:59.780Z,32.15
2022-08-03T13:52:30.937Z,32.14
2022-08-03T13:54:58.772Z,32.23
2022-08-03T13:58:03.079Z,32.25
2022-08-03T14:00:26.411Z,32.13
2022-08-03T14:03:02.787Z,32.12
2022-08-03T14:05:32.928Z,32.17
2022-08-03T14:08:04.331Z,32.15
2022-08-03T14:10:40.021Z,32.15
2022-08-03T14:13:07.730Z,32.11
2022-08-03T14:15:37.641Z,32.19
2022-08-03T14:18:12.654Z,32.09
2022-08-03T14:20:47.868Z,32.11
2022-08-03T14:23:18.227Z,32.11
2022-08-03T14:25:51.583Z,32.22
2022-08-03T14:28:23.747Z,32.23
2022-08-03T14:30:52.369Z,32.24
2022-08-03T14:33:20.911Z,32.22
2022-08-03T14:35:48.776Z,32.23
2022-08-03T14:38:16.737Z,32.21
2022-08-03T14:40:44.733Z,32.20
2022-08-03T14:43:12.426Z,32.19
2022-08-03T14:45:40.212Z,32.10
2022-08-03T14:50:32.310Z,32.12
2022-08-03T14:50:56.616Z,32.07
2022-08-03T14:53:24.653Z,32.09
2022-08-03T14:55:53.429Z,32.11
2022-08-03T14:58:22.164Z,32.12
2022-08-03T15:00:50.651Z,31.95
2022-08-03T15:03:21.492Z,31.93
2022-08-03T15:05:57.862Z,31.96
2022-08-03T15:08:25.654Z,32.02
2022-08-03T15:10:56.514Z,32.09
2022-08-03T15:13:25.311Z,32.13
2022-08-03T15:15:52.617Z,31.99
2022-08-03T15:18:20.794Z,32.01
2022-08-03T15:20:50.578Z,32.01
2022-08-03T15:23:18.515Z,32.06
2022-08-03T15:26:29.553Z,32.17
2022-08-03T15:28:34.066Z,32.12
2022-08-03T15:31:01.812Z,32.10
2022-08-03T15:33:29.381Z,32.11
2022-08-03T15:35:57.047Z,32.17
2022-08-03T15:38:25.966Z,32.26
2022-08-03T15:40:56.957Z,32.26
2022-08-03T15:43:24.742Z,32.23
2022-08-03T15:46:26.535Z,32.22
2022-08-03T15:48:39.947Z,32.15
2022-08-03T15:51:08.073Z,32.11
2022-08-03T15:53:35.420Z,32.04
2022-08-03T15:56:09.417Z,31.98
2022-08-03T15:59:04.578Z,31.99
2022-08-03T16:01:27.044Z,32.02
2022-08-03T16:03:54.446Z,32.04
2022-08-03T16:06:29.564Z,32.05
2022-08-03T16:09:05.524Z,32.05
2022-08-03T16:11:50.768Z,32.01
2022-08-03T16:14:32.495Z,31.96
2022-08-03T16:17:03.675Z,31.95
2022-08-03T16:19:31.111Z,31.94
2022-08-03T16:21:58.433Z,31.89
2022-08-03T16:24:27.704Z,31.88
2022-08-03T16:26:56.305Z,31.89
2022-08-03T16:29:24.106Z,31.94
2022-08-03T16:31:52.443Z,31.95
2022-08-03T16:34:20.324Z,32.00
2022-08-03T16:36:47.817Z,31.97
2022-08-03T16:39:15.424Z,31.95
2022-08-03T16:41:54.142Z,31.96
2022-08-03T16:44:30.147Z,31.97
2022-08-03T16:46:58.722Z,31.94
2022-08-03T16:49:54.564Z,31.94
2022-08-03T16:52:16.723Z,31.93
2022-08-03T16:54:53.834Z,31.90
2022-08-03T16:57:55.660Z,31.90
2022-08-03T17:00:10.412Z,31.82
2022-08-03T17:02:38.016Z,31.80
2022-08-03T17:05:05.499Z,31.82
2022-08-03T17:07:32.741Z,31.79
2022-08-03T17:10:01.028Z,31.76
2022-08-03T17:12:28.710Z,31.74
2022-08-03T17:14:57.492Z,31.71
2022-08-03T17:17:30.043Z,31.67
2022-08-03T17:20:11.672Z,31.66
2022-08-03T17:22:46.117Z,31.62
2022-08-03T17:25:21.859Z,31.58
2022-08-03T17:28:50.422Z,31.55
2022-08-03T17:31:22.864Z,31.53
2022-08-03T17:33:56.371Z,31.49
2022-08-03T17:36:41.884Z,31.48
2022-08-03T17:39:15.179Z,31.43
2022-08-03T17:41:49.889Z,31.41
2022-08-03T17:44:33.045Z,31.37
2022-08-03T17:47:06.521Z,31.34
2022-08-03T17:49:40.142Z,31.31
2022-08-03T17:52:17.290Z,31.27
2022-08-03T17:55:06.909Z,31.25
2022-08-03T17:58:02.406Z,31.23
2022-08-03T18:02:00.528Z,31.19
2022-08-03T18:04:02.752Z,31.13
2022-08-03T18:06:38.916Z,31.09
2022-08-03T18:10:06.095Z,31.05
2022-08-03T18:12:23.061Z,31.01
2022-08-03T18:14:57.579Z,30.99
2022-08-03T18:17:54.959Z,30.95
2022-08-03T18:20:28.074Z,30.89
2022-08-03T18:23:04.814Z,30.81
2022-08-03T18:25:38.310Z,30.78
2022-08-03T18:28:11.849Z,30.77
2022-08-03T18:30:53.603Z,30.73
2022-08-03T18:34:18.952Z,30.72
2022-08-03T18:36:11.123Z,30.67
2022-08-03T18:38:46.519Z,30.64
2022-08-03T18:41:20.555Z,30.63
2022-08-03T18:44:08.394Z,30.58
2022-08-03T18:47:07.388Z,30.53
2022-08-03T18:49:57.242Z,30.48
2022-08-03T18:52:34.790Z,30.43
2022-08-03T18:55:12.522Z,30.40
2022-08-03T18:57:47.330Z,30.35
2022-08-03T19:00:17.040Z,30.34
2022-08-03T19:02:49.029Z,30.31
2022-08-03T19:05:18.338Z,30.28
2022-08-03T19:10:37.936Z,30.19
2022-08-03T19:13:14.048Z,30.18
2022-08-03T19:15:51.270Z,30.22
2022-08-03T19:18:28.202Z,30.18
2022-08-03T19:20:56.201Z,30.17
2022-08-03T19:23:25.184Z,30.17
2022-08-03T19:25:53.687Z,30.15
2022-08-03T19:28:29.801Z,30.13
2022-08-03T19:31:00.237Z,30.12
2022-08-03T19:33:31.229Z,30.13
2022-08-03T19:36:19.100Z,30.13
2022-08-03T19:38:54.735Z,30.15
2022-08-03T19:41:24.344Z,30.15
2022-08-03T19:43:58.260Z,30.10
2022-08-03T19:49:15.969Z,30.06
2022-08-03T19:52:02.215Z,30.05
2022-08-03T19:54:52.989Z,30.12
2022-08-03T19:57:23.588Z,30.16
2022-08-03T19:59:53.159Z,30.11
2022-08-03T20:02:26.458Z,30.10
2022-08-03T20:05:00.008Z,29.95
2022-08-03T20:07:28.988Z,29.86
2022-08-03T20:09:59.624Z,29.78
2022-08-03T20:12:29.436Z,29.72
2022-08-03T20:14:57.664Z,29.67
2022-08-03T20:17:54.362Z,29.66
2022-08-03T20:20:13.516Z,29.58
2022-08-03T20:22:45.532Z,29.57
2022-08-03T20:25:16.289Z,29.58
2022-08-03T20:28:08.077Z,29.54
2022-08-03T20:30:39.047Z,29.54
2022-08-03T20:33:09.966Z,29.53
2022-08-03T20:35:37.190Z,29.53
2022-08-03T20:38:04.430Z,29.52
2022-08-03T20:40:32.251Z,29.51
2022-08-03T20:42:59.835Z,29.48
2022-08-03T20:46:01.077Z,29.45
2022-08-03T20:48:17.312Z,29.44
2022-08-03T20:50:49.607Z,29.38
2022-08-03T20:53:31.162Z,29.47
2022-08-03T20:56:04.737Z,29.51
2022-08-03T20:58:32.689Z,29.58
2022-08-03T21:01:00.832Z,29.53
2022-08-03T21:03:40.567Z,29.62
2022-08-03T21:06:10.037Z,29.53
2022-08-03T21:08:39.308Z,29.55
2022-08-03T21:11:16.698Z,29.60
2022-08-03T21:13:02.898Z,30.04
2022-08-03T21:13:09.487Z,30.24
2022-08-03T21:13:56.023Z,29.51
2022-08-03T21:16:26.895Z,29.52
2022-08-03T21:18:55.392Z,29.47
2022-08-03T21:21:23.708Z,29.41
2022-08-03T21:23:57.725Z,29.28
2022-08-03T21:26:26.027Z,29.17
2022-08-03T21:28:54.510Z,29.14
2022-08-03T21:31:25.680Z,29.07
2022-08-03T21:33:55.152Z,28.95
2022-08-03T21:36:22.425Z,28.83
2022-08-03T21:38:56.100Z,28.75
2022-08-03T21:41:28.579Z,28.68
2022-08-03T21:43:55.828Z,28.62
2022-08-03T21:46:23.729Z,28.64
2022-08-03T21:48:54.216Z,28.63
2022-08-03T21:51:23.805Z,28.60
2022-08-03T21:54:03.586Z,28.68
2022-08-03T21:56:41.269Z,28.66
2022-08-03T21:59:15.099Z,28.73
2022-08-03T22:01:42.692Z,28.72
2022-08-03T22:04:24.062Z,28.56
2022-08-03T22:06:58.544Z,28.57
2022-08-03T22:09:25.783Z,28.58
2022-08-03T22:11:54.200Z,28.57
2022-08-03T22:14:21.620Z,28.50
2022-08-03T22:16:49.175Z,28.39
2022-08-03T22:19:18.985Z,28.35
2022-08-03T22:21:48.110Z,28.34
2022-08-03T22:24:16.312Z,28.37
2022-08-03T22:27:04.414Z,28.25
2022-08-03T22:29:32.738Z,28.15
2022-08-03T22:32:00.253Z,28.03
2022-08-03T22:34:28.460Z,27.98
2022-08-03T22:36:57.184Z,27.88
2022-08-03T22:39:28.823Z,27.83
2022-08-03T22:41:59.925Z,27.82
2022-08-03T22:44:27.826Z,27.79
2022-08-03T22:46:55.964Z,27.76
2022-08-03T22:49:23.945Z,27.67
2022-08-03T22:51:51.924Z,27.79
2022-08-03T22:54:19.254Z,27.77
2022-08-03T22:56:47.014Z,27.76
2022-08-03T22:59:38.949Z,27.56
2022-08-03T23:02:20.531Z,27.50
2022-08-03T23:04:55.047Z,27.39
2022-08-03T23:07:28.425Z,27.29
2022-08-03T23:09:56.265Z,27.27
2022-08-03T23:12:23.719Z,27.24
2022-08-03T23:14:59.902Z,27.17
2022-08-03T23:17:28.944Z,27.09
2022-08-03T23:20:01.369Z,27.10
2022-08-03T23:22:30.253Z,27.07
2022-08-03T23:24:58.745Z,27.03
2022-08-03T23:27:27.073Z,27.00
2022-08-03T23:29:54.283Z,27.04
2022-08-03T23:32:21.474Z,27.12
2022-08-03T23:35:07.759Z,27.09
2022-08-03T23:38:04.219Z,27.08
2022-08-03T23:40:24.546Z,27.09
2022-08-03T23:42:52.039Z,27.10
2022-08-03T23:45:19.854Z,27.11
2022-08-03T23:47:48.012Z,27.05
2022-08-03T23:50:15.236Z,26.96
2022-08-03T23:52:50.280Z,26.91
2022-08-03T23:55:32.428Z,26.79
2022-08-03T23:58:12.108Z,26.84
